Time;durP1;ratioP1;P1;durP2;ratioP2;P2;SDS_P1;SDS_P2;PMS_P1;PMS_P2;Temp;Humidity;BMP_temperature;BMP_pressure;BME280_temperature;BME280_humidity;BME280_pressure;Samples;Min_cycle;Max_cycle;Signal;HPM_P1;HPM_P2
2022/03/25 00:02:07;;;;;;;75.82;40.53;;;;;;;7.59;75.70;102872.06;5094910;28;20028;-71
2022/03/25 00:04:33;;;;;;;78.53;41.42;;;;;;;7.57;76.16;102879.78;5093753;28;20035;-71
2022/03/25 00:06:58;;;;;;;77.13;40.85;;;;;;;7.55;76.52;102881.47;5094872;28;20507;-71
2022/03/25 00:09:24;;;;;;;77.15;41.83;;;;;;;7.54;76.57;102882.31;5094079;28;20381;-71
2022/03/25 00:11:49;;;;;;;84.93;44.63;;;;;;;7.47;76.27;102886.50;5094010;28;20024;-70
2022/03/25 00:14:14;;;;;;;74.72;43.00;;;;;;;7.39;76.78;102864.72;5094380;28;20032;-71
2022/03/25 00:16:41;;;;;;;81.88;44.75;;;;;;;7.43;76.58;102881.22;5093478;28;20047;-71
2022/03/25 00:19:06;;;;;;;85.28;43.65;;;;;;;7.35;77.04;102877.56;5094650;28;20553;-71
2022/03/25 00:21:31;;;;;;;74.15;41.05;;;;;;;7.36;77.44;102881.94;5094226;28;20036;-71
2022/03/25 00:23:56;;;;;;;79.10;42.05;;;;;;;7.27;76.88;102878.28;5093667;28;20053;-71
2022/03/25 00:26:22;;;;;;;81.68;42.17;;;;;;;7.28;77.29;102887.81;5094224;28;20016;-71
2022/03/25 00:28:47;;;;;;;82.70;42.50;;;;;;;7.23;77.68;102886.84;5093960;28;20631;-70
2022/03/25 00:31:13;;;;;;;81.20;45.08;;;;;;;7.22;77.31;102886.78;5093433;28;20024;-71
2022/03/25 00:33:39;;;;;;;77.03;41.90;;;;;;;7.16;77.97;102886.66;5093917;28;20032;-71
2022/03/25 00:36:05;;;;;;;79.07;41.47;;;;;;;7.12;77.48;102893.47;5094615;28;20020;-70
2022/03/25 00:38:30;;;;;;;85.35;43.42;;;;;;;7.08;77.39;102883.88;5093301;28;20031;-71
2022/03/25 00:40:56;;;;;;;84.45;44.08;;;;;;;7.01;78.06;102882.00;5094043;28;20165;-71
2022/03/25 00:43:22;;;;;;;76.32;41.22;;;;;;;6.99;78.25;102888.84;5093930;28;20039;-71
2022/03/25 00:45:48;;;;;;;79.10;42.03;;;;;;;6.91;78.07;102882.63;5093277;28;20049;-71
2022/03/25 00:48:14;;;;;;;81.32;42.88;;;;;;;6.86;78.86;102886.78;5093593;28;20044;-71
2022/03/25 00:50:40;;;;;;;81.82;42.88;;;;;;;6.83;79.05;102890.19;5093848;28;20031;-71
2022/03/25 00:53:06;;;;;;;79.10;41.40;;;;;;;6.75;78.72;102887.41;5093507;28;20034;-71
2022/03/25 00:55:31;;;;;;;77.28;40.63;;;;;;;6.73;79.21;102870.94;5093768;28;20028;-71
2022/03/25 00:57:58;;;;;;;78.82;41.28;;;;;;;6.69;78.68;102882.06;5093351;28;20028;-71
2022/03/25 01:00:24;;;;;;;76.43;41.25;;;;;;;6.64;79.44;102878.50;5092790;28;20039;-70
2022/03/25 01:02:49;;;;;;;83.68;43.55;;;;;;;6.56;79.28;102865.31;5093439;28;20028;-71
2022/03/25 01:05:14;;;;;;;79.82;41.58;;;;;;;6.57;79.46;102879.16;5093691;28;20468;-71
2022/03/25 01:07:39;;;;;;;80.25;40.72;;;;;;;6.51;79.68;102876.44;5092529;28;20082;-71
2022/03/25 01:10:05;;;;;;;77.13;40.97;;;;;;;6.49;79.18;102880.69;5093824;28;20035;-71
2022/03/25 01:12:31;;;;;;;75.60;40.53;;;;;;;6.41;79.57;102883.09;5126195;27;20395;-71
2022/03/25 01:14:57;;;;;;;79.25;42.28;;;;;;;6.42;79.93;102878.78;5092451;28;20030;-71
2022/03/25 01:17:22;;;;;;;84.47;41.88;;;;;;;6.39;79.72;102889.94;5093105;28;20418;-70
2022/03/25 01:19:47;;;;;;;84.20;43.60;;;;;;;6.36;80.03;102881.22;5092545;28;20077;-71
2022/03/25 01:22:13;;;;;;;79.07;41.35;;;;;;;6.32;80.54;102886.31;5093246;28;20476;-71
2022/03/25 01:24:39;;;;;;;79.68;41.22;;;;;;;6.26;80.69;102878.38;5093149;28;20381;-71
2022/03/25 01:27:04;;;;;;;82.50;43.55;;;;;;;6.26;80.80;102886.13;5092726;28;20079;-71
2022/03/25 01:29:29;;;;;;;78.70;41.85;;;;;;;6.22;80.64;102884.31;5093115;28;20059;-71
2022/03/25 01:31:55;;;;;;;82.00;42.95;;;;;;;6.20;80.40;102883.38;5092947;28;20107;-71
2022/03/25 01:34:20;;;;;;;79.88;43.05;;;;;;;6.12;80.84;102881.44;5092106;28;20503;-71
2022/03/25 01:36:46;;;;;;;85.40;42.70;;;;;;;6.06;81.32;102874.38;5092952;28;20103;-71
2022/03/25 01:39:12;;;;;;;76.55;40.33;;;;;;;6.03;81.41;102884.63;5092960;28;20028;-71
2022/03/25 01:41:37;;;;;;;82.32;40.85;;;;;;;6.01;81.67;102881.13;5092094;28;20031;-71
2022/03/25 01:44:04;;;;;;;77.82;41.20;;;;;;;6.00;82.15;102881.97;5093081;28;20402;-71
2022/03/25 01:46:30;;;;;;;78.03;41.53;;;;;;;5.98;82.28;102874.13;5092372;28;20032;-71
2022/03/25 01:48:56;;;;;;;83.65;42.50;;;;;;;5.97;81.97;102867.22;5091960;28;20027;-71
2022/03/25 01:51:27;;;;;;;82.95;41.38;;;;;;;5.95;82.19;102870.59;5092673;28;20036;-70
2022/03/25 01:53:53;;;;;;;81.97;41.75;;;;;;;5.92;81.57;102876.53;5092732;28;20020;-70
2022/03/25 01:56:22;;;;;;;79.22;42.72;;;;;;;5.89;82.25;102876.47;5091828;28;20072;-71
2022/03/25 01:58:48;;;;;;;80.82;40.53;;;;;;;5.87;82.21;102873.81;5092547;28;20016;-71
2022/03/25 02:01:14;;;;;;;78.15;39.80;;;;;;;5.85;82.16;102877.19;5092501;28;20138;-71
2022/03/25 02:03:39;;;;;;;75.07;40.65;;;;;;;5.81;82.16;102873.63;5091466;28;20425;-71
2022/03/25 02:06:04;;;;;;;73.72;39.00;;;;;;;5.76;81.95;102879.53;5092615;28;20031;-70
2022/03/25 02:08:30;;;;;;;79.07;39.65;;;;;;;5.77;82.50;102878.69;5092219;28;20040;-71
2022/03/25 02:10:56;;;;;;;73.53;39.00;;;;;;;5.73;82.59;102871.69;5091118;28;20020;-71
2022/03/25 02:13:22;;;;;;;78.60;38.38;;;;;;;5.71;82.62;102874.19;5092189;28;20357;-71
2022/03/25 02:15:48;;;;;;;70.70;37.85;;;;;;;5.70;82.74;102882.81;5092189;28;20480;-70
2022/03/25 02:18:18;;;;;;;74.35;38.92;;;;;;;5.68;82.83;102884.47;5091458;28;20028;-71
2022/03/25 02:20:43;;;;;;;74.38;39.47;;;;;;;5.66;82.49;102880.97;5092159;28;20016;-71
2022/03/25 02:23:09;;;;;;;69.25;37.47;;;;;;;5.61;82.86;102873.06;5091687;28;20103;-71
2022/03/25 02:25:35;;;;;;;77.30;39.35;;;;;;;5.56;83.27;102879.81;5092216;28;20110;-70
2022/03/25 02:28:03;;;;;;;70.32;37.85;;;;;;;5.55;83.13;102882.34;5091878;28;20053;-71
2022/03/25 02:30:29;;;;;;;75.03;37.75;;;;;;;5.48;83.57;102870.94;5091334;28;20035;-71
2022/03/25 02:33:00;;;;;;;69.90;36.13;;;;;;;5.44;83.43;102879.44;5092067;28;20021;-71
2022/03/25 02:35:54;;;;;;;77.30;37.75;;;;;;;5.43;82.32;102874.22;5091985;28;20020;-71
2022/03/25 02:38:22;;;;;;;76.10;37.65;;;;;;;5.38;84.16;102880.13;5077591;28;20040;-71
2022/03/25 02:40:48;;;;;;;70.43;38.17;;;;;;;5.31;84.11;102875.59;5091680;28;20028;-70
2022/03/25 02:43:13;;;;;;;68.57;35.30;;;;;;;5.33;83.81;102870.47;5091802;28;20073;-70
2022/03/25 02:45:39;;;;;;;67.22;36.95;;;;;;;5.31;84.24;102867.84;5090981;28;20078;-71
2022/03/25 02:48:05;;;;;;;74.03;37.25;;;;;;;5.27;83.47;102873.75;5091894;28;20494;-70
2022/03/25 02:50:31;;;;;;;70.63;37.88;;;;;;;5.26;83.67;102873.69;5091620;28;20483;-71
2022/03/25 02:52:58;;;;;;;65.68;34.58;;;;;;;5.22;83.56;102872.72;5090923;28;20110;-71
2022/03/25 02:55:24;;;;;;;69.38;35.97;;;;;;;5.21;83.47;102870.13;5091539;28;20490;-71
2022/03/25 02:57:49;;;;;;;69.05;32.88;;;;;;;5.14;83.07;102869.91;5091765;28;20046;-70
2022/03/25 03:00:14;;;;;;;61.80;33.05;;;;;;;5.11;83.18;102875.00;5090918;28;20475;-70
2022/03/25 03:02:40;;;;;;;66.78;34.33;;;;;;;5.08;82.96;102874.88;5091487;28;20044;-71
2022/03/25 03:05:08;;;;;;;75.50;35.08;;;;;;;5.02;82.46;102879.00;5091861;28;20016;-71
2022/03/25 03:07:38;;;;;;;63.55;32.80;;;;;;;5.01;82.75;102877.25;5090587;28;20031;-71
2022/03/25 03:10:08;;;;;;;66.30;33.92;;;;;;;4.97;82.57;102875.38;5091882;28;20058;-71
2022/03/25 03:12:34;;;;;;;64.78;32.05;;;;;;;4.95;82.67;102880.50;5090900;28;20031;-71
2022/03/25 03:15:00;;;;;;;62.35;32.58;;;;;;;4.91;82.01;102876.94;5091564;28;20101;-71
2022/03/25 03:17:26;;;;;;;65.25;31.45;;;;;;;4.87;81.24;102877.69;5091050;28;20031;-70
2022/03/25 03:19:51;;;;;;;60.22;31.30;;;;;;;4.84;81.63;102879.25;5090884;28;20391;-70
2022/03/25 03:22:20;;;;;;;60.65;31.52;;;;;;;4.82;81.53;102881.81;5094679;28;20062;-70
2022/03/25 03:24:45;;;;;;;59.35;31.15;;;;;;;4.80;81.70;102880.00;5095371;28;20456;-71
2022/03/25 03:27:11;;;;;;;66.00;32.85;;;;;;;4.73;81.11;102878.91;5094765;28;20069;-71
2022/03/25 03:29:36;;;;;;;65.80;31.20;;;;;;;4.70;81.42;102881.41;5095416;28;20387;-71
2022/03/25 03:32:03;;;;;;;58.53;31.20;;;;;;;4.66;81.41;102887.28;5095701;28;20107;-71
2022/03/25 03:34:29;;;;;;;60.67;31.45;;;;;;;4.64;81.42;102882.09;5094429;28;20533;-71
2022/03/25 03:36:54;;;;;;;53.95;30.80;;;;;;;4.58;81.35;102873.25;5095167;28;20056;-70
2022/03/25 03:39:20;;;;;;;64.65;31.38;;;;;;;4.56;81.58;102880.06;5095245;28;20028;-70
2022/03/25 03:41:45;;;;;;;58.78;31.17;;;;;;;4.55;82.00;102876.59;5094446;28;20536;-70
2022/03/25 03:44:10;;;;;;;58.92;32.03;;;;;;;4.50;82.16;102875.56;5095149;28;20428;-71
2022/03/25 03:46:36;;;;;;;61.50;33.40;;;;;;;4.52;82.14;102875.63;5095053;28;20432;-71
2022/03/25 03:49:01;;;;;;;64.75;32.67;;;;;;;4.46;83.14;102872.00;5094420;28;20027;-70
2022/03/25 03:51:27;;;;;;;59.35;31.55;;;;;;;4.39;81.78;102867.44;5094795;28;20360;-70
2022/03/25 03:53:52;;;;;;;60.15;31.50;;;;;;;4.39;81.78;102874.31;5095108;28;20512;-70
2022/03/25 03:56:17;;;;;;;57.00;30.75;;;;;;;4.38;81.62;102876.03;5094209;28;20028;-71
2022/03/25 03:58:42;;;;;;;65.03;32.13;;;;;;;4.33;82.38;102869.81;5094715;28;20039;-71
2022/03/25 04:01:07;;;;;;;62.15;30.50;;;;;;;4.30;81.36;102874.00;5095200;28;20028;-71
2022/03/25 04:03:33;;;;;;;62.97;31.85;;;;;;;4.30;82.55;102884.34;5093828;28;20047;-70
2022/03/25 04:05:59;;;;;;;59.85;31.88;;;;;;;4.26;83.22;102887.63;5094620;28;20024;-71
2022/03/25 04:08:24;;;;;;;67.00;33.55;;;;;;;4.20;82.85;102877.97;5094379;28;20101;-71
2022/03/25 04:10:49;;;;;;;62.50;32.13;;;;;;;4.17;82.32;102883.03;5093933;28;20023;-72
2022/03/25 04:13:15;;;;;;;58.33;31.60;;;;;;;4.12;83.02;102884.53;5094339;28;20031;-72
2022/03/25 04:15:40;;;;;;;59.85;31.63;;;;;;;4.09;82.86;102887.03;5093529;28;20025;-70
2022/03/25 04:18:06;;;;;;;58.75;31.23;;;;;;;4.05;82.82;102877.41;5094897;28;20021;-71
2022/03/25 04:20:31;;;;;;;59.65;32.85;;;;;;;4.04;83.45;102884.28;5094237;28;20491;-70
2022/03/25 04:22:56;;;;;;;62.42;32.55;;;;;;;4.03;83.02;102885.13;5093762;28;20032;-70
2022/03/25 04:25:22;;;;;;;62.75;31.67;;;;;;;4.01;83.05;102883.28;5094379;28;20105;-70
2022/03/25 04:27:49;;;;;;;62.92;32.47;;;;;;;3.98;83.10;102892.66;5094327;28;20028;-71
2022/03/25 04:30:20;;;;;;;66.07;32.35;;;;;;;3.92;83.02;102895.06;5093467;28;20024;-71
2022/03/25 04:32:45;;;;;;;58.08;30.70;;;;;;;3.93;82.66;102896.81;5093376;28;20043;-71
2022/03/25 04:35:10;;;;;;;65.22;32.30;;;;;;;3.91;83.24;102898.44;5094001;28;20467;-70
2022/03/25 04:37:36;;;;;;;65.68;33.08;;;;;;;3.86;83.72;102897.41;5093755;28;20348;-70
2022/03/25 04:40:03;;;;;;;63.70;33.58;;;;;;;3.85;84.16;102895.63;5094339;28;20035;-71
2022/03/25 04:42:29;;;;;;;61.00;32.15;;;;;;;3.84;84.34;102899.03;5093973;28;20093;-70
2022/03/25 04:44:54;;;;;;;64.55;33.97;;;;;;;3.85;83.85;102905.94;5093236;28;20103;-70
2022/03/25 04:47:20;;;;;;;66.38;33.83;;;;;;;3.83;83.82;102902.44;5093515;28;20119;-71
2022/03/25 04:49:45;;;;;;;63.00;33.70;;;;;;;3.80;83.02;102898.88;5093764;28;20043;-70
2022/03/25 04:52:10;;;;;;;64.15;33.85;;;;;;;3.74;83.53;102892.66;5093186;28;20485;-70
2022/03/25 04:54:36;;;;;;;66.18;32.70;;;;;;;3.74;83.50;102897.81;5094317;28;20079;-70
2022/03/25 04:57:02;;;;;;;68.20;33.30;;;;;;;3.65;83.03;102887.16;5094313;28;20031;-70
2022/03/25 04:59:27;;;;;;;67.22;34.10;;;;;;;3.67;83.50;102905.28;5093135;28;20036;-71
2022/03/25 05:01:53;;;;;;;61.60;32.25;;;;;;;3.61;83.22;102900.75;5093777;28;20024;-70
2022/03/25 05:04:18;;;;;;;71.07;34.53;;;;;;;3.60;83.36;102905.88;5093476;28;20024;-70
2022/03/25 05:06:43;;;;;;;69.05;33.63;;;;;;;3.58;84.17;102908.38;5092896;28;20059;-71
2022/03/25 05:09:10;;;;;;;62.03;32.33;;;;;;;3.55;84.06;102907.38;5093638;28;20483;-70
2022/03/25 05:11:36;;;;;;;66.32;33.10;;;;;;;3.51;83.70;102911.53;5093796;28;20025;-70
2022/03/25 05:14:01;;;;;;;63.42;32.85;;;;;;;3.46;84.12;102903.63;5093178;28;20028;-70
2022/03/25 05:16:26;;;;;;;60.83;31.23;;;;;;;3.41;84.63;102902.56;5093233;28;20388;-70
2022/03/25 05:18:52;;;;;;;62.83;32.92;;;;;;;3.41;84.54;102910.31;5092766;28;20107;-70
2022/03/25 05:21:17;;;;;;;64.45;33.10;;;;;;;3.41;84.50;102914.59;5093435;28;20020;-70
2022/03/25 05:23:42;;;;;;;66.57;32.95;;;;;;;3.39;84.92;102913.63;5093259;28;20392;-70
2022/03/25 05:26:07;;;;;;;68.60;33.97;;;;;;;3.33;84.91;102908.25;5092749;28;20024;-70
2022/03/25 05:28:33;;;;;;;70.78;35.45;;;;;;;3.29;84.87;102909.81;5093021;28;20387;-70
2022/03/25 05:30:58;;;;;;;67.95;33.70;;;;;;;3.28;84.76;102918.38;5093196;28;20035;-70
2022/03/25 05:33:23;;;;;;;65.95;33.15;;;;;;;3.24;84.27;102906.19;5092111;28;20468;-70
2022/03/25 05:35:49;;;;;;;65.50;33.30;;;;;;;3.25;85.03;102911.41;5093345;28;20039;-70
2022/03/25 05:38:14;;;;;;;70.63;34.55;;;;;;;3.26;85.45;102910.56;5092838;28;20020;-70
2022/03/25 05:40:39;;;;;;;69.63;33.67;;;;;;;3.28;84.68;102910.66;5092197;28;20107;-70
2022/03/25 05:43:05;;;;;;;69.43;32.85;;;;;;;3.28;85.04;102920.97;5093148;28;20028;-70
2022/03/25 05:45:30;;;;;;;62.58;32.38;;;;;;;3.27;84.38;102922.66;5092556;28;20043;-71
2022/03/25 05:47:55;;;;;;;62.85;33.38;;;;;;;3.25;84.22;102920.84;5091767;28;20892;-70
2022/03/25 05:50:21;;;;;;;69.15;35.28;;;;;;;3.26;84.61;102927.75;5092417;28;20036;-70
2022/03/25 05:52:46;;;;;;;70.32;35.60;;;;;;;3.25;84.52;102921.72;5092770;28;20032;-70
2022/03/25 05:55:16;;;;;;;68.15;34.95;;;;;;;3.28;85.59;102923.53;5091864;28;20395;-70
2022/03/25 05:57:42;;;;;;;73.53;34.85;;;;;;;3.28;84.89;102924.41;5092476;28;20024;-70
2022/03/25 06:00:08;;;;;;;71.20;33.38;;;;;;;3.31;84.78;102927.94;5092822;28;20081;-70
2022/03/25 06:02:35;;;;;;;67.05;33.75;;;;;;;3.29;84.77;102936.47;5091566;28;20062;-70
2022/03/25 06:05:00;;;;;;;70.15;34.80;;;;;;;3.31;84.91;102923.66;5092376;28;20032;-70
2022/03/25 06:07:25;;;;;;;72.15;34.50;;;;;;;3.38;85.21;102928.22;5092372;28;20024;-70
2022/03/25 06:09:51;;;;;;;73.90;34.70;;;;;;;3.39;84.58;102924.81;5091927;28;20028;-70
2022/03/25 06:12:17;;;;;;;64.55;33.45;;;;;;;3.43;84.21;102926.72;5092865;28;20031;-70
2022/03/25 06:14:42;;;;;;;69.82;35.10;;;;;;;3.43;85.05;102923.25;5092430;28;20024;-70
2022/03/25 06:17:07;;;;;;;67.30;34.72;;;;;;;3.50;84.85;102925.28;5091796;28;20080;-70
2022/03/25 06:19:33;;;;;;;68.68;34.55;;;;;;;3.54;84.44;102939.16;5092036;28;20028;-70
2022/03/25 06:21:59;;;;;;;63.15;33.17;;;;;;;3.60;84.37;102937.69;5092236;28;20027;-70
2022/03/25 06:24:24;;;;;;;66.88;34.85;;;;;;;3.64;84.70;102944.72;5091199;28;20028;-71
2022/03/25 06:26:52;;;;;;;74.90;34.53;;;;;;;3.72;84.36;102940.72;5092142;28;20024;-70
2022/03/25 06:29:17;;;;;;;70.05;35.72;;;;;;;3.80;84.13;102937.59;5091280;28;20028;-70
2022/03/25 06:31:42;;;;;;;72.85;37.22;;;;;;;3.87;83.49;102937.88;5091848;28;20020;-70
2022/03/25 06:34:08;;;;;;;74.22;35.58;;;;;;;3.98;83.73;102943.41;5092369;28;20095;-70
2022/03/25 06:36:33;;;;;;;77.65;36.88;;;;;;;4.08;83.07;102948.09;5091240;28;20032;-70
2022/03/25 06:38:58;;;;;;;79.30;37.50;;;;;;;4.18;81.67;102955.34;5091797;28;20031;-70
2022/03/25 06:41:23;;;;;;;78.50;39.38;;;;;;;4.28;81.30;102960.84;5091723;28;20034;-70
2022/03/25 06:43:49;;;;;;;74.45;38.42;;;;;;;4.37;81.39;102959.47;5091139;28;20017;-70
2022/03/25 06:46:19;;;;;;;79.60;38.38;;;;;;;4.46;80.34;102959.81;5091774;28;20024;-70
2022/03/25 06:48:44;;;;;;;79.00;40.28;;;;;;;4.55;80.02;102958.41;5092155;28;20063;-70
2022/03/25 06:51:10;;;;;;;77.97;39.92;;;;;;;4.64;80.16;102963.84;5091136;28;20428;-70
2022/03/25 06:53:36;;;;;;;77.05;38.92;;;;;;;4.68;79.51;102955.41;5091985;28;20036;-70
2022/03/25 06:56:02;;;;;;;78.20;39.17;;;;;;;4.73;78.99;102942.63;5091535;28;20028;-70
2022/03/25 06:58:28;;;;;;;81.43;39.25;;;;;;;4.78;79.52;102944.56;5090885;28;20035;-70
2022/03/25 07:00:53;;;;;;;82.53;41.28;;;;;;;4.83;78.56;102944.69;5091420;28;20024;-70
2022/03/25 07:03:19;;;;;;;89.15;40.92;;;;;;;4.90;77.68;102950.16;5091436;28;20016;-70
2022/03/25 07:05:44;;;;;;;82.45;40.83;;;;;;;4.95;78.30;102952.88;5090919;28;20058;-70
2022/03/25 07:08:10;;;;;;;76.03;40.35;;;;;;;5.04;77.95;102960.94;5091530;28;20052;-70
2022/03/25 07:10:36;;;;;;;85.25;42.70;;;;;;;5.09;77.52;102964.53;5091740;28;20119;-70
2022/03/25 07:13:02;;;;;;;82.18;42.88;;;;;;;5.14;77.53;102969.88;5090852;28;20496;-70
2022/03/25 07:15:28;;;;;;;87.10;41.70;;;;;;;5.20;77.54;102972.69;5091206;28;20024;-71
2022/03/25 07:17:53;;;;;;;76.10;42.17;;;;;;;5.24;77.82;102969.34;5091353;28;20540;-70
2022/03/25 07:20:22;;;;;;;85.38;43.08;;;;;;;5.32;77.40;102975.63;5090767;28;20111;-70
2022/03/25 07:22:49;;;;;;;82.95;41.22;;;;;;;5.41;76.27;102967.31;5091448;28;20069;-70
2022/03/25 07:25:16;;;;;;;83.20;42.58;;;;;;;5.47;76.78;102972.69;5091439;28;20104;-70
2022/03/25 07:27:43;;;;;;;85.00;42.35;;;;;;;5.53;76.59;102975.47;5090373;28;20138;-71
2022/03/25 07:30:09;;;;;;;81.88;43.60;;;;;;;5.62;76.21;102985.19;5091386;28;20063;-70
2022/03/25 07:32:35;;;;;;;79.75;43.15;;;;;;;5.72;76.44;102992.44;5090462;28;20067;-70
2022/03/25 07:35:00;;;;;;;83.22;44.22;;;;;;;5.79;76.63;102993.50;5091433;28;20048;-71
2022/03/25 07:37:26;;;;;;;82.82;45.00;;;;;;;5.80;76.37;102974.56;5091197;28;20494;-70
2022/03/25 07:39:51;;;;;;;81.88;43.85;;;;;;;5.95;75.86;102989.69;5090475;28;20404;-70
2022/03/25 07:42:16;;;;;;;82.70;43.80;;;;;;;6.02;76.21;102982.16;5091302;28;20539;-70
2022/03/25 07:44:42;;;;;;;85.93;44.67;;;;;;;6.13;75.56;102986.78;5091018;28;20024;-70
2022/03/25 07:47:09;;;;;;;86.60;45.90;;;;;;;6.23;74.95;102994.84;5090604;28;20054;-70
2022/03/25 07:49:35;;;;;;;86.68;44.13;;;;;;;6.29;75.54;102992.44;5091438;28;20051;-70
2022/03/25 07:52:02;;;;;;;85.40;43.88;;;;;;;6.34;74.32;102997.72;5091245;28;20020;-70
2022/03/25 07:54:28;;;;;;;82.95;43.83;;;;;;;6.43;74.39;102994.53;5090255;28;20115;-70
2022/03/25 07:56:57;;;;;;;86.68;44.85;;;;;;;6.49;73.68;102994.72;5090991;28;20103;-70
2022/03/25 07:59:23;;;;;;;83.82;43.38;;;;;;;6.59;74.05;103001.91;5090671;28;20027;-70
2022/03/25 08:01:48;;;;;;;85.13;44.45;;;;;;;6.70;73.44;103008.28;5090400;28;20028;-71
2022/03/25 08:04:14;;;;;;;85.45;45.75;;;;;;;6.81;72.79;103016.31;5091122;28;20536;-71
2022/03/25 08:06:40;;;;;;;83.13;43.50;;;;;;;6.89;73.45;103012.22;5090984;28;20407;-71
2022/03/25 08:09:05;;;;;;;89.60;45.83;;;;;;;6.99;72.55;103018.50;5093399;28;20020;-70
2022/03/25 08:11:31;;;;;;;86.53;44.92;;;;;;;7.09;72.13;103012.72;5094523;28;20038;-71
2022/03/25 08:13:56;;;;;;;86.28;46.40;;;;;;;7.19;72.03;103014.75;5094487;28;20604;-70
2022/03/25 08:16:21;;;;;;;84.28;47.50;;;;;;;7.27;71.08;103012.31;5093489;28;20028;-70
2022/03/25 08:18:46;;;;;;;86.75;44.85;;;;;;;7.38;70.26;103012.56;5094601;28;20426;-70
2022/03/25 08:21:12;;;;;;;86.03;44.88;;;;;;;7.50;69.13;103026.72;5094430;28;20035;-71
2022/03/25 08:29:05;;;;;;;79.35;43.78;;;;;;;7.83;65.94;103014.50;5093994;28;20799;-70
2022/03/25 08:31:34;;;;;;;81.90;43.60;;;;;;;7.87;65.82;103017.19;5094193;28;20051;-71
2022/03/25 08:34:00;;;;;;;79.30;43.45;;;;;;;7.98;65.44;103033.03;5094240;28;20023;-70
2022/03/25 08:36:25;;;;;;;74.13;40.50;;;;;;;8.06;65.04;103028.00;5093334;28;20028;-70
2022/03/25 08:38:51;;;;;;;85.22;42.00;;;;;;;8.16;64.27;103036.03;5094258;28;20383;-71
2022/03/25 08:41:16;;;;;;;76.13;38.63;;;;;;;8.23;62.52;103023.16;5093953;28;20031;-70
2022/03/25 08:43:41;;;;;;;73.47;38.63;;;;;;;8.33;62.27;103030.31;5093144;28;20046;-71
2022/03/25 08:46:09;;;;;;;71.35;39.20;;;;;;;8.45;62.16;103035.78;5094457;28;20028;-71
2022/03/25 08:48:35;;;;;;;69.95;39.15;;;;;;;8.58;62.38;103035.19;5093683;28;20573;-70
2022/03/25 08:51:01;;;;;;;68.47;38.28;;;;;;;8.64;61.31;103035.31;5093260;28;20032;-70
2022/03/25 08:53:26;;;;;;;68.88;38.65;;;;;;;8.72;62.07;103030.25;5093470;28;20081;-70
2022/03/25 08:55:52;;;;;;;72.18;38.80;;;;;;;8.81;62.24;103034.75;5093914;28;20021;-71
2022/03/25 08:58:17;;;;;;;77.43;40.38;;;;;;;8.88;61.13;103021.88;5092707;28;20405;-70
2022/03/25 09:00:43;;;;;;;70.70;38.92;;;;;;;8.99;61.22;103032.50;5093504;28;20028;-70
2022/03/25 09:03:08;;;;;;;72.18;38.63;;;;;;;9.11;60.09;103037.91;5093943;28;20112;-70
2022/03/25 09:05:33;;;;;;;69.82;38.15;;;;;;;9.19;60.40;103025.06;5092658;28;20383;-71
2022/03/25 09:07:58;;;;;;;75.13;40.42;;;;;;;9.41;59.87;103043.63;5093444;28;20468;-70
2022/03/25 09:10:24;;;;;;;71.82;38.25;;;;;;;9.52;58.87;103045.56;5093075;28;20075;-70
2022/03/25 09:12:49;;;;;;;77.03;39.25;;;;;;;9.63;58.17;103044.84;5092896;28;20384;-70
2022/03/25 09:15:15;;;;;;;67.68;36.97;;;;;;;9.76;59.19;103046.78;5093742;28;20028;-71
2022/03/25 09:17:45;;;;;;;74.63;38.75;;;;;;;9.93;57.95;103047.91;5093145;28;20425;-70
2022/03/25 09:20:11;;;;;;;67.97;36.47;;;;;;;9.99;56.02;103045.38;5092277;28;20032;-71
2022/03/25 09:22:37;;;;;;;70.35;37.15;;;;;;;10.17;56.68;103050.00;5093210;28;20028;-71
2022/03/25 09:25:04;;;;;;;67.57;36.72;;;;;;;10.27;55.16;103051.03;5093115;28;20028;-71
2022/03/25 09:27:29;;;;;;;68.50;38.42;;;;;;;10.34;55.17;103047.63;5093301;28;20146;-71
2022/03/25 09:29:54;;;;;;;71.07;36.80;;;;;;;10.44;55.88;103041.66;5093124;28;20494;-70
2022/03/25 09:32:20;;;;;;;64.90;35.85;;;;;;;10.61;55.76;103039.25;5092191;28;20020;-71
2022/03/25 09:37:29;;;;;;;;;;;;;;;10.84;56.73;103042.13;5093277;28;20917;-71
2022/03/25 09:39:54;;;;;;;61.67;35.17;;;;;;;10.95;54.17;103040.50;5092183;28;19912;-70
2022/03/25 09:42:20;;;;;;;60.45;33.55;;;;;;;11.06;52.69;103042.34;5092743;28;20308;-71
2022/03/25 09:44:48;;;;;;;63.50;34.65;;;;;;;11.16;52.97;103039.81;5092800;28;20091;-71
2022/03/25 09:47:16;;;;;;;67.60;34.85;;;;;;;11.25;52.54;103045.13;5091798;28;20051;-71
2022/03/25 09:49:42;;;;;;;62.20;34.17;;;;;;;11.38;52.06;103043.50;5092431;28;20029;-71
2022/03/25 09:52:08;;;;;;;62.33;33.15;;;;;;;11.46;51.92;103039.19;5093171;28;20026;-70
2022/03/25 09:54:34;;;;;;;63.97;32.25;;;;;;;11.52;50.99;103027.06;5092125;28;20024;-71
2022/03/25 09:57:00;;;;;;;71.78;31.63;;;;;;;11.59;49.27;103034.94;5092692;28;20027;-70
2022/03/25 09:59:26;;;;;;;55.17;30.02;;;;;;;11.64;48.46;103032.34;5092537;28;20055;-71
2022/03/25 10:01:51;;;;;;;58.15;29.52;;;;;;;11.70;48.46;103030.66;5091696;28;20024;-71
2022/03/25 10:04:41;;;;;;;60.97;32.15;;;;;;;11.85;50.51;103036.91;5092203;28;20499;-71
2022/03/25 10:07:13;;;;;;;58.83;28.77;;;;;;;12.06;49.49;103025.69;5092628;28;20502;-71
2022/03/25 10:09:38;;;;;;;57.67;29.75;;;;;;;12.24;48.69;103032.75;5091981;28;20035;-71
2022/03/25 10:12:19;;;;;;;58.85;30.27;;;;;;;12.35;49.21;103031.91;5092634;28;20429;-71
2022/03/25 10:14:47;;;;;;;57.78;29.58;;;;;;;12.36;47.67;103033.69;5091306;28;20051;-71
2022/03/25 10:17:12;;;;;;;60.92;30.92;;;;;;;12.46;47.40;103034.59;5092451;28;20036;-71
2022/03/25 10:19:47;;;;;;;58.08;29.92;;;;;;;12.57;48.00;103027.66;5091990;28;20035;-71
2022/03/25 10:22:16;;;;;;;60.00;29.05;;;;;;;12.70;45.63;103023.31;5091452;28;20039;-71
2022/03/25 10:24:41;;;;;;;65.57;31.40;;;;;;;12.82;47.08;103017.25;5091772;28;20145;-71
2022/03/25 10:27:07;;;;;;;53.70;29.27;;;;;;;12.98;45.72;103025.97;5092325;28;20071;-70
2022/03/25 10:29:37;;;;;;;55.97;29.40;;;;;;;13.10;45.39;103020.75;5091014;28;20294;-71
2022/03/25 10:32:14;;;;;;;53.33;27.48;;;;;;;13.21;45.89;103024.28;5091918;28;20024;-71
2022/03/25 10:34:41;;;;;;;46.47;25.52;;;;;;;13.35;44.32;103011.19;5091765;28;20475;-71
2022/03/25 10:37:12;;;;;;;46.08;26.10;;;;;;;13.45;43.31;103022.56;5091450;28;20110;-71
2022/03/25 10:39:38;;;;;;;45.50;25.65;;;;;;;13.48;43.67;103012.06;5091783;28;20364;-71
2022/03/25 10:42:06;;;;;;;49.65;25.92;;;;;;;13.49;42.73;103016.44;5092153;28;20058;-71
2022/03/25 10:44:36;;;;;;;43.83;25.02;;;;;;;13.59;43.08;103012.91;5091057;28;20073;-71
2022/03/25 10:47:24;;;;;;;47.63;24.33;;;;;;;13.73;43.25;103011.16;5091676;28;20492;-71
2022/03/25 10:49:50;;;;;;;50.38;26.25;;;;;;;13.90;42.23;103010.25;5090844;28;20116;-71
2022/03/25 10:52:24;;;;;;;44.63;23.52;;;;;;;14.08;41.71;103004.91;5092040;28;20044;-71
2022/03/25 10:54:50;;;;;;;41.25;22.35;;;;;;;14.18;39.77;103006.63;5091802;28;20110;-71
2022/03/25 10:57:17;;;;;;;40.50;21.20;;;;;;;14.34;40.85;103004.81;5091034;28;20081;-71
2022/03/25 10:59:43;;;;;;;40.83;21.27;;;;;;;14.50;39.41;103011.75;5091575;28;20028;-71
2022/03/25 11:02:11;;;;;;;34.50;19.15;;;;;;;14.57;39.37;103009.97;5091934;28;20024;-71
2022/03/25 11:04:36;;;;;;;36.00;20.52;;;;;;;14.64;38.61;103011.69;5090750;28;20438;-72
2022/03/25 11:07:02;;;;;;;36.38;19.55;;;;;;;14.74;39.43;102997.59;5091823;28;20059;-72
2022/03/25 11:09:28;;;;;;;35.40;19.88;;;;;;;14.87;39.26;103003.66;5091437;28;20042;-72
2022/03/25 11:11:55;;;;;;;48.55;23.63;;;;;;;14.90;38.61;103002.75;5090815;28;20028;-72
2022/03/25 11:14:21;;;;;;;37.92;20.40;;;;;;;14.97;38.83;103001.81;5091327;28;20028;-71
2022/03/25 11:16:54;;;;;;;33.38;19.10;;;;;;;15.06;38.29;102999.13;5091462;28;20035;-72
2022/03/25 11:19:20;;;;;;;37.83;21.02;;;;;;;15.25;37.93;102996.38;5090619;28;20031;-72
2022/03/25 11:21:47;;;;;;;43.53;24.23;;;;;;;15.31;38.52;102988.44;5091526;28;20085;-72